Time;durP1;ratioP1;P1;durP2;ratioP2;P2;SDS_P1;SDS_P2;PMS_P1;PMS_P2;Temp;Humidity;BMP_temperature;BMP_pressure;BME280_temperature;BME280_humidity;BME280_pressure;Samples;Min_cycle;Max_cycle;Signal;HPM_P1;HPM_P2
2021/09/13 00:01:39;;;;;;;9.57;7.47;;;16.40;91.10;;;;;;4870251;29;20035;-82
2021/09/13 00:04:04;;;;;;;7.55;6.85;;;16.40;91.10;;;;;;4869993;29;20063;-82
2021/09/13 00:06:31;;;;;;;8.18;6.95;;;16.40;91.10;;;;;;4884084;29;20040;-80
2021/09/13 00:08:56;;;;;;;8.07;6.93;;;16.40;91.10;;;;;;4916440;29;20032;-81
2021/09/13 00:11:22;;;;;;;9.07;6.97;;;16.40;91.10;;;;;;4871295;29;20099;-82
2021/09/13 00:13:48;;;;;;;8.48;6.88;;;16.30;91.20;;;;;;4885980;29;20084;-81
2021/09/13 00:16:14;;;;;;;8.13;6.53;;;16.30;91.20;;;;;;4870139;29;20032;-82
2021/09/13 00:18:39;;;;;;;7.53;6.40;;;16.40;91.20;;;;;;4870457;29;20038;-81
2021/09/13 00:21:05;;;;;;;10.32;7.13;;;16.30;91.20;;;;;;4885883;29;20432;-81
2021/09/13 00:23:31;;;;;;;7.93;6.38;;;16.30;91.20;;;;;;4886111;29;20040;-82
2021/09/13 00:25:56;;;;;;;8.10;6.50;;;16.30;91.20;;;;;;4901400;29;20035;-81
2021/09/13 00:28:22;;;;;;;7.90;6.30;;;16.40;91.30;;;;;;4901201;29;20036;-81
2021/09/13 00:30:48;;;;;;;7.88;7.05;;;16.30;91.30;;;;;;4870864;29;20131;-82
2021/09/13 00:33:14;;;;;;;8.00;6.95;;;16.30;91.30;;;;;;4902477;29;20111;-81
2021/09/13 00:35:40;;;;;;;7.35;6.65;;;16.30;91.30;;;;;;4885769;29;20506;-81
2021/09/13 00:38:05;;;;;;;8.07;7.07;;;16.30;91.30;;;;;;4900794;29;20031;-81
2021/09/13 00:40:31;;;;;;;6.93;6.22;;;16.30;91.40;;;;;;4901265;29;20127;-82
2021/09/13 00:42:57;;;;;;;7.25;6.32;;;16.20;91.30;;;;;;4901753;29;20053;-82
2021/09/13 00:45:23;;;;;;;8.27;7.38;;;16.30;91.30;;;;;;4901123;29;20123;-82
2021/09/13 00:47:48;;;;;;;10.52;7.30;;;16.30;91.30;;;;;;4902333;29;20127;-81
2021/09/13 00:50:14;;;;;;;9.18;7.22;;;16.20;91.40;;;;;;4916362;29;20089;-82
2021/09/13 00:52:44;;;;;;;8.90;8.00;;;16.20;91.40;;;;;;4885668;29;20037;-81
2021/09/13 00:55:10;;;;;;;10.05;8.65;;;16.20;91.40;;;;;;4903087;29;20044;-82
2021/09/13 00:57:36;;;;;;;9.88;8.27;;;16.10;91.40;;;;;;4920426;29;20032;-81
2021/09/13 01:00:02;;;;;;;9.40;8.27;;;16.10;91.50;;;;;;4889202;29;20032;-80
2021/09/13 01:02:28;;;;;;;9.43;8.48;;;15.90;91.60;;;;;;4920530;29;20035;-81
2021/09/13 01:04:53;;;;;;;10.00;9.00;;;15.90;91.70;;;;;;4903780;29;20040;-81
2021/09/13 01:07:20;;;;;;;10.63;8.80;;;15.90;91.80;;;;;;4904324;29;20044;-80
2021/09/13 01:09:46;;;;;;;11.45;8.75;;;15.90;91.90;;;;;;4919562;29;20092;-81
2021/09/13 01:12:11;;;;;;;10.68;9.68;;;15.80;92.00;;;;;;4920947;29;20055;-81
2021/09/13 01:14:40;;;;;;;11.65;9.50;;;15.70;92.10;;;;;;4903819;29;20036;-81
2021/09/13 01:17:07;;;;;;;10.88;9.77;;;15.70;92.20;;;;;;4935827;29;20028;-81
2021/09/13 01:19:33;;;;;;;12.15;10.93;;;15.60;92.30;;;;;;4919289;29;20039;-81
2021/09/13 01:22:01;;;;;;;10.57;9.50;;;15.50;92.40;;;;;;4888140;29;20039;-80
2021/09/13 01:24:31;;;;;;;15.35;10.90;;;15.40;92.60;;;;;;4903159;29;20124;-81
2021/09/13 01:27:15;;;;;;;12.40;11.10;;;15.30;92.80;;;;;;4919725;29;20083;-82
2021/09/13 01:29:41;;;;;;;12.43;10.93;;;15.20;92.90;;;;;;4904217;29;20036;-81
2021/09/13 01:32:07;;;;;;;13.43;11.82;;;15.10;93.10;;;;;;4903063;29;20028;-81
2021/09/13 01:34:33;;;;;;;15.25;11.75;;;15.00;93.30;;;;;;4887175;29;20088;-80
2021/09/13 01:36:59;;;;;;;12.57;11.27;;;14.90;93.50;;;;;;4918276;29;20028;-81
2021/09/13 01:39:26;;;;;;;14.00;11.02;;;14.80;93.50;;;;;;4934411;29;20132;-81
2021/09/13 01:41:51;;;;;;;12.80;11.35;;;14.70;93.60;;;;;;4934964;29;20032;-81
2021/09/13 01:44:17;;;;;;;12.85;10.98;;;14.70;93.70;;;;;;4920252;29;20048;-81
2021/09/13 01:46:44;;;;;;;14.95;11.55;;;14.70;93.80;;;;;;4933631;29;20024;-81
2021/09/13 01:49:11;;;;;;;14.52;12.27;;;14.60;93.90;;;;;;4918559;29;20032;-81
2021/09/13 01:51:38;;;;;;;13.60;12.20;;;14.50;94.10;;;;;;4918256;29;20100;-81
2021/09/13 01:54:05;;;;;;;13.60;11.65;;;14.40;94.30;;;;;;4920258;29;20028;-81
2021/09/13 01:56:31;;;;;;;13.57;12.18;;;14.40;94.40;;;;;;4906268;29;20048;-81
2021/09/13 01:58:58;;;;;;;15.05;11.88;;;14.40;94.50;;;;;;4914825;29;20040;-81
2021/09/13 02:01:27;;;;;;;14.82;12.02;;;14.30;94.60;;;;;;4868390;29;20033;-81
2021/09/13 02:03:53;;;;;;;12.77;11.48;;;14.30;94.70;;;;;;4868947;29;20040;-80
2021/09/13 02:06:19;;;;;;;14.70;11.55;;;14.30;94.70;;;;;;4868483;29;20590;-81
2021/09/13 02:08:46;;;;;;;15.43;12.20;;;14.20;94.70;;;;;;4868425;29;20078;-81
2021/09/13 02:11:11;;;;;;;13.00;11.43;;;14.20;94.80;;;;;;4916585;29;20033;-82
2021/09/13 02:13:37;;;;;;;13.90;12.40;;;14.20;94.80;;;;;;4869655;29;20495;-81
2021/09/13 02:16:04;;;;;;;14.13;12.73;;;14.20;94.80;;;;;;4885958;29;20033;-81
2021/09/13 02:18:30;;;;;;;14.35;12.25;;;14.10;94.90;;;;;;4902390;29;20366;-82
2021/09/13 02:20:56;;;;;;;13.95;12.18;;;14.10;95.00;;;;;;4873611;29;20156;-82
2021/09/13 02:23:21;;;;;;;13.93;12.00;;;14.10;95.00;;;;;;4876727;29;20048;-81
2021/09/13 02:25:47;;;;;;;14.15;12.48;;;14.00;95.10;;;;;;4889897;29;20104;-81
2021/09/13 02:28:13;;;;;;;14.30;12.20;;;14.00;95.10;;;;;;4889476;29;20434;-82
2021/09/13 02:30:39;;;;;;;13.85;12.35;;;14.00;95.10;;;;;;4919224;29;20103;-81
2021/09/13 02:33:05;;;;;;;15.95;13.07;;;14.00;95.10;;;;;;4871636;29;20060;-81
2021/09/13 02:35:30;;;;;;;14.52;13.18;;;13.90;95.20;;;;;;4903430;29;20055;-82
2021/09/13 02:37:56;;;;;;;15.63;13.05;;;13.90;95.30;;;;;;4888223;29;20024;-81
2021/09/13 02:40:22;;;;;;;15.68;13.80;;;13.90;95.30;;;;;;4919277;29;20039;-81
2021/09/13 02:42:49;;;;;;;16.38;14.50;;;13.90;95.40;;;;;;4887680;29;20033;-80
2021/09/13 02:45:15;;;;;;;15.50;13.82;;;13.90;95.40;;;;;;4904835;29;20021;-81
2021/09/13 02:47:41;;;;;;;18.83;14.57;;;13.80;95.40;;;;;;4904079;29;20029;-82
2021/09/13 02:50:07;;;;;;;15.75;14.05;;;13.80;95.50;;;;;;4887047;29;20029;-82
2021/09/13 02:52:34;;;;;;;16.50;14.02;;;13.80;95.50;;;;;;4883884;29;20035;-82
2021/09/13 02:55:00;;;;;;;16.83;14.63;;;13.80;95.60;;;;;;4883495;29;20055;-81
2021/09/13 02:57:25;;;;;;;17.13;15.32;;;13.70;95.60;;;;;;4932976;29;20515;-82
2021/09/13 02:59:51;;;;;;;18.92;15.00;;;13.70;95.70;;;;;;4918634;29;20053;-81
2021/09/13 03:02:17;;;;;;;17.00;14.77;;;13.60;95.70;;;;;;4902161;29;20029;-82
2021/09/13 03:04:43;;;;;;;18.02;15.32;;;13.60;95.80;;;;;;4886417;29;20063;-82
2021/09/13 03:07:10;;;;;;;18.67;15.75;;;13.60;95.80;;;;;;4886690;29;20047;-81
2021/09/13 03:09:36;;;;;;;18.42;16.30;;;13.50;95.80;;;;;;4918700;29;20125;-81
2021/09/13 03:12:04;;;;;;;18.00;14.50;;;13.50;95.90;;;;;;4902142;29;20044;-81
2021/09/13 03:14:30;;;;;;;16.55;14.80;;;13.40;96.00;;;;;;4922323;29;20036;-82
2021/09/13 03:16:56;;;;;;;18.20;14.73;;;13.40;96.00;;;;;;4906357;29;20127;-82
2021/09/13 03:19:21;;;;;;;17.50;15.05;;;13.30;96.10;;;;;;4905645;29;20391;-81
2021/09/13 03:21:47;;;;;;;16.83;15.23;;;13.30;96.10;;;;;;4890492;29;20091;-82
2021/09/13 03:24:13;;;;;;;16.55;14.85;;;13.30;96.10;;;;;;4906041;29;20079;-83
2021/09/13 03:26:39;;;;;;;19.95;15.35;;;13.30;96.10;;;;;;4906880;29;20040;-83
2021/09/13 03:29:04;;;;;;;19.92;15.43;;;13.20;96.10;;;;;;4919666;29;20028;-82
2021/09/13 03:31:30;;;;;;;16.10;14.40;;;13.20;96.20;;;;;;4889518;29;20536;-83
2021/09/13 03:33:56;;;;;;;16.05;14.35;;;13.20;96.20;;;;;;4889398;29;20039;-82
2021/09/13 03:36:21;;;;;;;16.95;14.95;;;13.10;96.20;;;;;;4905458;29;20031;-82
2021/09/13 03:38:47;;;;;;;16.75;14.27;;;13.10;96.20;;;;;;4890283;29;20561;-82
2021/09/13 03:41:13;;;;;;;16.30;14.63;;;13.10;96.20;;;;;;4889793;29;20115;-82
2021/09/13 03:43:39;;;;;;;18.85;14.77;;;13.10;96.30;;;;;;4889990;29;20491;-82
2021/09/13 03:46:04;;;;;;;15.25;13.65;;;13.00;96.30;;;;;;4936275;29;20416;-81
2021/09/13 03:48:30;;;;;;;18.00;15.20;;;13.00;96.30;;;;;;4905546;29;20047;-83
2021/09/13 03:50:55;;;;;;;17.20;14.60;;;12.90;96.30;;;;;;4922567;29;20032;-82
2021/09/13 03:53:21;;;;;;;16.70;14.55;;;12.90;96.30;;;;;;4890490;29;20043;-82
2021/09/13 03:55:47;;;;;;;16.95;13.68;;;12.90;96.30;;;;;;4923132;29;20119;-82
2021/09/13 03:58:13;;;;;;;17.83;14.20;;;12.90;96.30;;;;;;4906335;29;20476;-82
2021/09/13 04:00:44;;;;;;;17.65;14.93;;;12.90;96.30;;;;;;4921928;29;20071;-83
2021/09/13 04:03:54;;;;;;;16.92;15.13;;;12.90;96.30;;;;;;4921065;29;20028;-82
2021/09/13 04:05:59;;;;;;;17.38;15.00;;;12.80;96.30;;;;;;4916092;29;20070;-82
2021/09/13 04:13:37;;;;;;;21.60;14.75;;;12.80;96.40;;;;;;4904939;29;20380;-82
2021/09/13 04:16:03;;;;;;;17.80;14.75;;;12.70;96.40;;;;;;4905183;29;20040;-82
2021/09/13 04:18:29;;;;;;;17.20;14.75;;;12.70;96.40;;;;;;4904308;29;20036;-82
2021/09/13 04:20:55;;;;;;;19.58;15.77;;;12.70;96.50;;;;;;4936007;29;20532;-82
2021/09/13 04:23:21;;;;;;;20.20;15.13;;;12.70;96.50;;;;;;4919210;29;20032;-82
2021/09/13 04:25:46;;;;;;;21.77;16.92;;;12.70;96.50;;;;;;4902812;29;20121;-82
2021/09/13 04:28:12;;;;;;;19.20;17.00;;;12.70;96.60;;;;;;4888037;29;20032;-82
2021/09/13 04:30:38;;;;;;;26.10;17.40;;;12.70;96.60;;;;;;4887131;29;20119;-82
2021/09/13 04:33:04;;;;;;;21.25;16.42;;;12.60;96.60;;;;;;4903180;29;20060;-82
2021/09/13 04:35:29;;;;;;;26.33;18.55;;;12.60;96.60;;;;;;4902519;29;20585;-82
2021/09/13 04:37:55;;;;;;;28.15;19.13;;;12.60;96.70;;;;;;4887782;29;20043;-82
2021/09/13 04:40:20;;;;;;;23.85;18.92;;;12.50;96.80;;;;;;4887583;29;20036;-81
2021/09/13 04:42:46;;;;;;;24.15;19.05;;;12.50;96.90;;;;;;4904352;29;20457;-82
2021/09/13 04:45:12;;;;;;;27.42;19.15;;;12.50;96.90;;;;;;4903788;29;20032;-81
2021/09/13 04:47:38;;;;;;;25.10;19.77;;;12.50;97.00;;;;;;4904176;29;20035;-82
2021/09/13 04:50:04;;;;;;;26.67;19.15;;;12.40;97.10;;;;;;4889759;29;20036;-81
2021/09/13 04:52:29;;;;;;;23.75;18.70;;;12.50;97.20;;;;;;4920503;29;20202;-82
2021/09/13 04:54:55;;;;;;;24.92;19.10;;;12.40;97.20;;;;;;4888254;29;20067;-82
2021/09/13 04:57:21;;;;;;;23.67;18.70;;;12.40;97.20;;;;;;4903119;29;20076;-81
2021/09/13 04:59:46;;;;;;;23.30;18.30;;;12.40;97.20;;;;;;4888501;29;20047;-82
2021/09/13 05:02:12;;;;;;;22.00;17.13;;;12.40;97.30;;;;;;4902679;29;20384;-81
2021/09/13 05:04:38;;;;;;;26.08;18.58;;;12.40;97.20;;;;;;4887382;29;20036;-81
2021/09/13 05:07:03;;;;;;;25.38;18.45;;;12.40;97.20;;;;;;4902123;29;20408;-80
2021/09/13 05:09:29;;;;;;;26.13;19.35;;;12.30;97.20;;;;;;4886711;29;20524;-81
2021/09/13 05:11:55;;;;;;;26.75;18.77;;;12.40;97.20;;;;;;4886196;29;20063;-79
2021/09/13 05:14:21;;;;;;;27.50;20.13;;;12.30;97.20;;;;;;4885692;29;20087;-80
2021/09/13 05:16:47;;;;;;;23.37;19.17;;;12.30;97.30;;;;;;4885505;29;20028;-79
2021/09/13 05:19:12;;;;;;;23.77;18.58;;;12.30;97.30;;;;;;4932465;29;20031;-80
2021/09/13 05:21:38;;;;;;;22.23;18.65;;;12.40;97.40;;;;;;4885705;29;20032;-80
2021/09/13 05:24:05;;;;;;;25.85;19.50;;;12.40;97.40;;;;;;4886111;29;20028;-79
2021/09/13 05:26:32;;;;;;;24.15;18.60;;;12.40;97.40;;;;;;4932673;29;20056;-79
2021/09/13 05:28:57;;;;;;;24.50;19.30;;;12.50;97.40;;;;;;4932703;29;20408;-79
2021/09/13 05:31:23;;;;;;;24.23;19.02;;;12.50;97.40;;;;;;4901869;29;20071;-79
2021/09/13 05:33:49;;;;;;;25.45;19.73;;;12.60;97.30;;;;;;4918804;29;20059;-80
2021/09/13 05:36:15;;;;;;;25.38;19.98;;;12.70;97.30;;;;;;4901672;29;20115;-80
2021/09/13 05:38:40;;;;;;;23.75;18.83;;;12.80;97.30;;;;;;4917552;29;20024;-80
2021/09/13 05:41:06;;;;;;;26.67;20.15;;;13.00;97.20;;;;;;4885692;29;20495;-79
2021/09/13 05:43:33;;;;;;;24.05;18.73;;;13.20;97.10;;;;;;4916831;29;20063;-79
2021/09/13 05:45:59;;;;;;;23.88;18.42;;;13.40;97.00;;;;;;4932868;29;20056;-78
2021/09/13 05:48:25;;;;;;;22.65;17.80;;;13.70;96.50;;;;;;4901661;29;20342;-80
2021/09/13 05:50:51;;;;;;;20.45;17.70;;;13.90;96.20;;;;;;4885494;29;20028;-79
2021/09/13 05:53:17;;;;;;;23.20;19.13;;;14.20;95.70;;;;;;4918108;29;20020;-79
2021/09/13 05:55:43;;;;;;;23.02;18.17;;;14.50;95.00;;;;;;4885205;29;20063;-80
2021/09/13 05:58:12;;;;;;;22.67;18.08;;;14.80;94.50;;;;;;4901383;29;20074;-79
2021/09/13 06:00:38;;;;;;;21.42;18.85;;;15.00;93.80;;;;;;4917945;29;20123;-80
2021/09/13 06:03:05;;;;;;;18.17;16.27;;;15.00;93.40;;;;;;4886352;29;20036;-80
2021/09/13 06:05:32;;;;;;;19.92;16.67;;;14.90;93.40;;;;;;4917144;29;20044;-80
2021/09/13 06:07:58;;;;;;;23.70;17.52;;;15.00;93.30;;;;;;4886389;29;20024;-80
2021/09/13 06:10:23;;;;;;;22.75;17.08;;;15.10;93.20;;;;;;4887061;29;20524;-83
2021/09/13 06:12:49;;;;;;;19.60;16.60;;;15.30;93.00;;;;;;4919188;29;20028;-80
2021/09/13 06:15:15;;;;;;;21.33;16.25;;;15.50;92.70;;;;;;4918228;29;20044;-81
2021/09/13 06:17:41;;;;;;;19.40;16.42;;;15.90;92.20;;;;;;4886615;29;20468;-82
2021/09/13 06:20:07;;;;;;;19.80;17.02;;;16.40;91.50;;;;;;4932946;29;20377;-81
2021/09/13 06:22:33;;;;;;;20.70;17.25;;;16.80;90.60;;;;;;4901315;29;20024;-81
2021/09/13 06:24:58;;;;;;;19.80;16.80;;;17.30;89.00;;;;;;4886290;29;20118;-82
2021/09/13 06:27:24;;;;;;;19.08;16.10;;;17.70;87.00;;;;;;4933920;29;20025;-82
2021/09/13 06:29:50;;;;;;;19.35;15.68;;;18.10;85.40;;;;;;4933508;29;20076;-81
2021/09/13 06:32:16;;;;;;;19.17;16.60;;;18.40;83.70;;;;;;4918457;29;20118;-81
2021/09/13 06:34:42;;;;;;;18.83;15.50;;;18.60;82.20;;;;;;4918561;29;20073;-82
2021/09/13 06:37:08;;;;;;;20.20;16.38;;;18.70;81.60;;;;;;4901129;29;20043;-80
2021/09/13 06:39:34;;;;;;;16.80;15.00;;;18.90;80.70;;;;;;4901610;29;20043;-80
2021/09/13 06:42:00;;;;;;;17.80;14.93;;;18.90;80.00;;;;;;4885823;29;20032;-80
2021/09/13 06:44:26;;;;;;;16.50;14.52;;;18.90;79.70;;;;;;4885011;29;20076;-80
2021/09/13 06:47:10;;;;;;;19.25;14.85;;;18.70;79.80;;;;;;4932119;29;20024;-80
2021/09/13 06:49:37;;;;;;;17.13;14.80;;;18.60;80.20;;;;;;4922457;29;20056;-81
2021/09/13 06:52:04;;;;;;;18.30;15.55;;;18.70;80.20;;;;;;4937322;29;20032;-80
2021/09/13 06:54:30;;;;;;;23.05;17.42;;;18.80;80.00;;;;;;4922061;29;20067;-80
2021/09/13 06:56:58;;;;;;;19.48;16.45;;;18.80;79.70;;;;;;4889154;29;20139;-81
2021/09/13 06:59:24;;;;;;;20.00;15.27;;;18.80;79.50;;;;;;4921652;29;20039;-81
2021/09/13 07:01:50;;;;;;;19.38;14.63;;;19.10;79.30;;;;;;4889738;29;20054;-82
2021/09/13 07:04:15;;;;;;;15.55;13.85;;;19.40;78.70;;;;;;4890940;29;20040;-82
2021/09/13 07:06:41;;;;;;;16.38;13.68;;;19.70;77.60;;;;;;4938803;29;20445;-83
2021/09/13 07:09:07;;;;;;;16.92;13.45;;;20.20;77.00;;;;;;4908112;29;20032;-83
2021/09/13 07:11:33;;;;;;;16.85;12.20;;;20.70;75.80;;;;;;4908199;29;20039;-82
2021/09/13 07:13:58;;;;;;;13.02;11.05;;;21.10;73.80;;;;;;4939834;29;20060;-83
2021/09/13 07:16:24;;;;;;;13.55;10.48;;;21.50;72.30;;;;;;4908271;29;20052;-83
2021/09/13 07:18:50;;;;;;;11.07;9.35;;;21.80;71.30;;;;;;4923471;29;20028;-84
2021/09/13 07:21:16;;;;;;;11.10;9.23;;;21.80;70.10;;;;;;4924909;29;20461;-83
2021/09/13 07:23:43;;;;;;;11.57;8.77;;;21.90;70.40;;;;;;4938991;29;20547;-83
2021/09/13 07:26:08;;;;;;;10.85;7.72;;;22.20;69.00;;;;;;4925160;29;20024;-84
2021/09/13 07:28:34;;;;;;;11.05;7.45;;;22.30;68.70;;;;;;4922844;29;20058;-82
2021/09/13 07:31:00;;;;;;;13.90;7.43;;;22.30;68.10;;;;;;4906730;29;20032;-83
2021/09/13 07:33:26;;;;;;;10.05;6.78;;;22.20;68.00;;;;;;4924441;29;20032;-84
2021/09/13 07:35:52;;;;;;;7.25;6.53;;;22.50;68.40;;;;;;4907228;29;20056;-84
2021/09/13 07:38:18;;;;;;;10.23;5.85;;;22.80;67.50;;;;;;4925517;29;20036;-84
2021/09/13 07:40:44;;;;;;;7.03;5.45;;;23.10;66.50;;;;;;4939047;29;20032;-85
2021/09/13 07:43:10;;;;;;;7.97;5.15;;;23.30;65.30;;;;;;4940096;29;20091;-85
2021/09/13 07:45:37;;;;;;;8.07;4.63;;;23.40;65.60;;;;;;4909124;29;20048;-84
2021/09/13 07:48:04;;;;;;;6.80;4.07;;;23.90;65.20;;;;;;4909070;29;20028;-84
2021/09/13 07:50:30;;;;;;;7.40;3.65;;;24.50;64.30;;;;;;4924559;29;20040;-85
2021/09/13 07:52:55;;;;;;;4.93;3.53;;;24.60;62.80;;;;;;4908881;29;20039;-86
2021/09/13 07:55:21;;;;;;;5.63;3.05;;;25.00;62.50;;;;;;4892287;29;20063;-84
2021/09/13 07:57:47;;;;;;;4.75;1.88;;;25.70;61.30;;;;;;4907797;29;20456;-85
2021/09/13 08:00:14;;;;;;;3.65;2.05;;;26.20;58.70;;;;;;4906150;29;20052;-84
2021/09/13 08:02:41;;;;;;;5.32;2.72;;;25.60;57.30;;;;;;4924048;29;20029;-84
2021/09/13 08:05:07;;;;;;;4.93;2.40;;;24.70;58.60;;;;;;4906454;29;20552;-84
2021/09/13 08:07:33;;;;;;;4.10;1.98;;;24.00;60.30;;;;;;4907713;29;20032;-83
2021/09/13 08:09:58;;;;;;;3.80;2.10;;;23.40;61.00;;;;;;4891781;29;20079;-83
2021/09/13 08:12:24;;;;;;;6.20;1.60;;;23.50;61.80;;;;;;4892754;29;20024;-85
2021/09/13 08:14:50;;;;;;;5.15;2.70;;;23.80;61.10;;;;;;4924885;29;20040;-83
2021/09/13 08:17:16;;;;;;;3.95;1.63;;;23.80;60.50;;;;;;4892699;29;20046;-82
2021/09/13 08:19:44;;;;;;;3.22;1.52;;;24.20;60.00;;;;;;4938211;29;20559;-83
2021/09/13 08:22:10;;;;;;;3.15;1.90;;;24.60;59.40;;;;;;4906230;29;20032;-83
2021/09/13 08:24:36;;;;;;;3.20;1.20;;;24.80;57.90;;;;;;4906736;29;20032;-84
2021/09/13 08:27:02;;;;;;;3.65;0.90;;;25.10;58.50;;;;;;4924519;29;20046;-84
2021/09/13 08:29:28;;;;;;;6.28;1.20;;;25.30;56.10;;;;;;4924169;29;20036;-82
2021/09/13 08:31:55;;;;;;;4.47;1.30;;;25.00;56.10;;;;;;4924099;29;20040;-83
2021/09/13 08:34:21;;;;;;;6.25;1.48;;;24.90;57.00;;;;;;4926333;29;20361;-85
2021/09/13 08:36:47;;;;;;;3.65;1.08;;;25.40;58.30;;;;;;4907871;29;20052;-82
2021/09/13 08:39:14;;;;;;;2.10;0.85;;;25.70;57.20;;;;;;4924040;29;20355;-84
2021/09/13 08:41:43;;;;;;;4.30;0.80;;;25.70;55.10;;;;;;4939683;29;20051;-84
2021/09/13 08:44:13;;;;;;;3.45;0.80;;;25.00;56.80;;;;;;4922674;29;20097;-84
2021/09/13 08:46:49;;;;;;;2.22;0.50;;;25.30;58.00;;;;;;4923945;29;20104;-83
2021/09/13 08:49:50;;;;;;;3.03;0.70;;;25.80;56.70;;;;;;4924722;29;20456;-82
2021/09/13 08:52:07;;;;;;;3.13;0.70;;;25.90;55.10;;;;;;4907265;29;20458;-83
2021/09/13 08:54:36;;;;;;;2.75;0.90;;;26.20;56.40;;;;;;4890576;29;20068;-84
2021/09/13 08:57:06;;;;;;;4.72;0.80;;;26.30;54.60;;;;;;4923179;29;20052;-85
2021/09/13 08:59:36;;;;;;;3.33;0.80;;;26.20;55.40;;;;;;4891858;29;20040;-83
2021/09/13 09:02:03;;;;;;;3.50;0.82;;;26.20;55.00;;;;;;4937884;29;20028;-84
2021/09/13 09:04:30;;;;;;;4.40;1.02;;;26.20;54.10;;;;;;4923051;29;20032;-84
2021/09/13 09:07:09;;;;;;;2.35;0.93;;;26.30;53.60;;;;;;4923543;29;20127;-83
2021/09/13 09:09:35;;;;;;;3.13;0.80;;;26.40;54.00;;;;;;4924908;29;20036;-84
2021/09/13 09:12:08;;;;;;;3.65;1.13;;;26.80;55.10;;;;;;4893222;29;20127;-84
2021/09/13 09:14:50;;;;;;;4.15;0.98;;;27.50;54.00;;;;;;4907952;29;20048;-84
2021/09/13 09:17:28;;;;;;;4.80;1.20;;;27.50;51.50;;;;;;4941684;29;20111;-86
2021/09/13 09:20:08;;;;;;;4.65;0.90;;;27.00;52.10;;;;;;4927819;29;20036;-81
2021/09/13 09:22:40;;;;;;;3.72;0.95;;;26.60;54.30;;;;;;4930811;29;20477;-84
2021/09/13 09:25:08;;;;;;;4.03;0.60;;;26.90;53.30;;;;;;4933035;29;20032;-84
2021/09/13 09:27:54;;;;;;;5.18;0.70;;;27.20;53.10;;;;;;4904401;29;20039;-83
2021/09/13 09:30:20;;;;;;;4.22;0.70;;;27.40;53.40;;;;;;4953472;29;20020;-85
2021/09/13 09:33:06;;;;;;;1.90;0.50;;;27.60;52.40;;;;;;4939190;29;20056;-84
2021/09/13 09:35:41;;;;;;;1.90;0.40;;;28.00;51.10;;;;;;4919077;29;20055;-84
2021/09/13 09:38:27;;;;;;;3.67;0.60;;;27.70;50.00;;;;;;4916471;29;20076;-83
2021/09/13 09:40:59;;;;;;;2.60;0.68;;;26.80;51.40;;;;;;4905288;29;20040;-86
2021/09/13 09:43:25;;;;;;;2.97;0.60;;;26.10;53.20;;;;;;4917311;29;20016;-84
2021/09/13 09:45:51;;;;;;;4.15;0.50;;;25.90;52.60;;;;;;4918339;29;20044;-85
2021/09/13 09:48:16;;;;;;;5.68;0.60;;;25.90;54.90;;;;;;4900380;29;20113;-84
2021/09/13 09:50:45;;;;;;;2.67;0.45;;;26.20;53.00;;;;;;4931266;29;20039;-85
2021/09/13 09:53:21;;;;;;;1.73;0.30;;;26.30;51.90;;;;;;4917464;29;20033;-85
2021/09/13 09:55:54;;;;;;;2.40;0.40;;;26.10;52.50;;;;;;4931011;29;20055;-84
2021/09/13 09:58:19;;;;;;;1.50;0.40;;;26.20;54.00;;;;;;4930663;29;20028;-86
2021/09/13 10:00:47;;;;;;;2.85;0.38;;;26.40;52.50;;;;;;4930164;29;20396;-85
2021/09/13 10:03:29;;;;;;;3.05;0.50;;;26.30;52.40;;;;;;4927353;29;20031;-85
2021/09/13 10:05:55;;;;;;;3.17;0.45;;;26.30;51.90;;;;;;4924350;29;20035;-84
2021/09/13 10:08:22;;;;;;;1.85;0.50;;;26.60;52.90;;;;;;4906252;29;20115;-86
2021/09/13 10:10:48;;;;;;;2.33;0.50;;;26.70;51.90;;;;;;4893174;29;20032;-85
2021/09/13 10:13:14;;;;;;;4.00;0.35;;;26.70;51.80;;;;;;4925403;29;20059;-86
2021/09/13 10:15:41;;;;;;;1.85;0.30;;;26.70;52.60;;;;;;4926093;29;20028;-85
2021/09/13 10:18:07;;;;;;;2.45;0.40;;;26.90;52.00;;;;;;4940063;29;20080;-85
2021/09/13 10:20:34;;;;;;;1.55;0.40;;;26.80;50.90;;;;;;4925593;29;20035;-85
2021/09/13 10:23:00;;;;;;;2.08;0.40;;;26.90;51.30;;;;;;4910164;29;20028;-85
2021/09/13 10:25:30;;;;;;;3.22;0.38;;;27.30;51.20;;;;;;4910024;29;20043;-83
2021/09/13 10:28:06;;;;;;;1.85;0.30;;;27.10;48.50;;;;;;4892555;29;20024;-84
2021/09/13 10:30:47;;;;;;;1.58;0.40;;;26.40;49.50;;;;;;4925083;29;20031;-85
2021/09/13 10:33:13;;;;;;;2.53;0.40;;;25.80;50.50;;;;;;4941541;29;20464;-85
2021/09/13 10:35:59;;;;;;;2.78;0.30;;;25.70;50.80;;;;;;4925038;29;20040;-85
2021/09/13 10:38:46;;;;;;;2.38;0.40;;;25.40;51.60;;;;;;4909627;29;20032;-83
2021/09/13 10:41:32;;;;;;;2.35;0.30;;;25.70;51.20;;;;;;4939804;29;20032;-84
2021/09/13 10:44:06;;;;;;;4.43;0.57;;;26.10;50.10;;;;;;4925737;29;20031;-84
2021/09/13 10:46:56;;;;;;;1.75;0.30;;;25.80;50.10;;;;;;4924151;29;20040;-83
2021/09/13 10:49:22;;;;;;;2.05;0.40;;;26.20;51.10;;;;;;4909241;29;20032;-90
2021/09/13 10:52:26;;;;;;;2.45;0.40;;;26.60;50.00;;;;;;4909967;29;20033;-86
2021/09/13 10:55:07;;;;;;;3.17;0.40;;;26.80;49.70;;;;;;4908397;29;20114;-86
2021/09/13 10:57:53;;;;;;;1.10;0.30;;;26.50;49.60;;;;;;4891728;29;20052;-89
2021/09/13 11:00:37;;;;;;;2.95;0.40;;;26.40;49.90;;;;;;4907519;29;20457;-86
2021/09/13 11:03:41;;;;;;;2.72;0.38;;;26.40;50.00;;;;;;4909223;29;20028;-89
2021/09/13 11:06:13;;;;;;;3.17;0.40;;;26.90;50.90;;;;;;4832445;29;20041;-89
2021/09/13 11:08:45;;;;;;;2.72;0.43;;;27.50;49.80;;;;;;4879446;29;20047;-86
2021/09/13 11:11:20;;;;;;;1.42;0.30;;;27.90;48.30;;;;;;4907875;29;20123;-84
2021/09/13 11:13:55;;;;;;;2.67;0.30;;;27.70;47.80;;;;;;4890410;29;20025;-87
2021/09/13 11:16:21;;;;;;;2.85;0.40;;;27.80;48.10;;;;;;4909649;29;20048;-90
2021/09/13 11:18:48;;;;;;;1.30;0.30;;;27.50;46.90;;;;;;4906395;29;20049;-87
2021/09/13 11:21:26;;;;;;;1.42;0.32;;;27.10;47.20;;;;;;4921894;29;20108;-86
2021/09/13 11:23:59;;;;;;;2.38;0.45;;;27.20;47.70;;;;;;4891024;29;20036;-87
2021/09/13 11:26:49;;;;;;;1.15;0.30;;;27.40;47.90;;;;;;4907294;29;20037;-90
2021/09/13 11:29:30;;;;;;;2.35;0.30;;;27.80;47.70;;;;;;4891126;29;20044;-87
2021/09/13 11:32:02;;;;;;;2.35;0.30;;;27.80;46.40;;;;;;4893201;29;20060;-89
2021/09/13 11:34:49;;;;;;;1.65;0.30;;;27.40;47.40;;;;;;4896113;29;20073;-85
2021/09/13 11:37:23;;;;;;;2.42;0.30;;;27.40;48.30;;;;;;4903924;29;20073;-86
2021/09/13 11:39:48;;;;;;;2.83;0.40;;;27.60;47.70;;;;;;4907515;29;20029;-86
2021/09/13 11:42:17;;;;;;;1.65;0.38;;;27.10;46.20;;;;;;4925115;29;20013;-87
2021/09/13 11:44:44;;;;;;;2.33;0.50;;;26.80;48.00;;;;;;4939636;29;20013;-86
2021/09/13 11:47:13;;;;;;;1.58;0.47;;;27.20;48.70;;;;;;4907547;29;20052;-85
2021/09/13 11:49:44;;;;;;;2.22;0.50;;;27.30;46.90;;;;;;4924625;29;20056;-86
2021/09/13 11:52:13;;;;;;;2.63;0.40;;;27.10;47.10;;;;;;4934101;29;20095;-85
2021/09/13 11:54:51;;;;;;;1.98;0.52;;;27.00;47.90;;;;;;4900097;29;20536;-88
2021/09/13 11:57:50;;;;;;;2.75;0.50;;;26.50;47.60;;;;;;4932351;29;20080;-83
2021/09/13 12:00:20;;;;;;;1.70;0.50;;;25.50;49.70;;;;;;4933221;29;20032;-85
2021/09/13 12:02:46;;;;;;;2.53;0.40;;;25.20;49.30;;;;;;4918406;29;20025;-86
2021/09/13 12:05:16;;;;;;;1.95;0.38;;;25.30;49.90;;;;;;4900320;29;20560;-87
2021/09/13 12:07:44;;;;;;;2.42;0.40;;;25.50;49.10;;;;;;4916006;29;20028;-86
2021/09/13 12:10:12;;;;;;;2.08;0.32;;;25.60;48.00;;;;;;4929795;29;20025;-87
2021/09/13 12:12:43;;;;;;;2.42;0.50;;;25.90;48.20;;;;;;4911088;29;20458;-86
2021/09/13 12:15:10;;;;;;;1.20;0.30;;;25.90;48.10;;;;;;4908299;29;20028;-86
2021/09/13 12:17:39;;;;;;;1.13;0.47;;;25.70;48.40;;;;;;4922636;29;20169;-84
2021/09/13 12:20:22;;;;;;;1.85;0.50;;;25.70;48.50;;;;;;4921944;29;20025;-84
2021/09/13 12:22:57;;;;;;;1.35;0.47;;;25.90;49.50;;;;;;4907375;29;20456;-86
2021/09/13 12:25:23;;;;;;;1.40;0.50;;;26.00;50.10;;;;;;4921692;29;20040;-86
2021/09/13 12:28:10;;;;;;;1.80;0.70;;;25.80;49.70;;;;;;4906188;29;20084;-87
2021/09/13 12:30:38;;;;;;;1.48;0.43;;;25.30;51.00;;;;;;4907227;29;20032;-86
2021/09/13 12:33:06;;;;;;;2.22;0.80;;;25.20;52.10;;;;;;4906713;29;20072;-87
2021/09/13 12:35:32;;;;;;;3.70;0.80;;;25.00;50.40;;;;;;4905588;29;20048;-86
2021/09/13 12:37:58;;;;;;;2.15;0.60;;;24.90;51.30;;;;;;4906670;29;20028;-87
2021/09/13 12:40:24;;;;;;;3.03;0.80;;;25.20;51.80;;;;;;4906869;29;20024;-84
2021/09/13 12:42:57;;;;;;;1.92;0.70;;;25.20;50.60;;;;;;4906421;29;20168;-88
2021/09/13 12:45:28;;;;;;;2.88;0.50;;;25.10;50.50;;;;;;4905265;29;20028;-86
2021/09/13 12:48:01;;;;;;;3.03;0.52;;;25.00;51.10;;;;;;4921340;29;20495;-87
2021/09/13 12:50:41;;;;;;;3.58;0.80;;;25.10;52.00;;;;;;4921040;29;20035;-88